»·PEaware :: N6956H KSAN-KBUR

N6956H :: KSAN-KBUR

FLIGHT INFORMATION

Flight Status: Arrived
Operator: Privately registered:
United States
More flights under this callsign
Pilot: Joe C. (19058)
Aircraft: SOCATA TBM-900
(TBM9)
More flights by this aircraft type
Origin: KSAN San Diego Intl-Lindbergh
United States
Destination: KBUR Bob Hope-Burbank
United States
More flights between these airports :: More routes between these airports
Route: +CWARD2 LAX SILEX
File this flight plan on PilotEdge
Remarks: SANP14R
Altitude:
(Current/Filed)
9,000ft
Speed:
(Current/Filed)
250kts
Departed: 30-Oct-18 04:50 PM
Arrived: 30-Oct-18 05:28 PM
Distance/Time
Traveled:
106nm/0:38
Distance/Time
To Go:
Arrived

Flight Plot

Page will automatically refresh every two minutes.

Flight plan parsing failed; only flown route is shown


Map Options




Map Legend


Flown Route
Filed Route
Departure Airport
Arrival Airport
Navaid (VOR, NDB)
Fix

Horizontal Profiles

Position Reports

Time Latitude Longitude Heading Altitude Ground
Speed
30-Oct-18 16:35 32.732420 -117.176641 194 21ft 0kts
30-Oct-18 16:36 32.732420 -117.176641 194 21ft 0kts
30-Oct-18 16:37 32.732420 -117.176641 194 21ft 0kts
30-Oct-18 16:38 32.732420 -117.176641 194 21ft 0kts
30-Oct-18 16:39 32.732420 -117.176641 194 21ft 0kts
30-Oct-18 16:40 32.732420 -117.176641 194 21ft 0kts
30-Oct-18 16:41 32.732420 -117.176641 194 21ft 0kts
30-Oct-18 16:42 32.732420 -117.176641 194 21ft 0kts
30-Oct-18 16:43 32.732420 -117.176641 194 21ft 0kts
30-Oct-18 16:44 32.732420 -117.176641 194 21ft 0kts
30-Oct-18 16:45 32.732420 -117.176641 194 21ft 0kts
30-Oct-18 16:46 32.732420 -117.176641 194 21ft 0kts
30-Oct-18 16:47 32.732420 -117.176641 194 21ft 0kts
30-Oct-18 16:48 32.732420 -117.176641 194 21ft 0kts
30-Oct-18 16:49 32.732153 -117.176711 192 20ft 9kts
30-Oct-18 16:50 32.731054 -117.175559 139 21ft 0kts
30-Oct-18 16:51 32.731054 -117.175559 139 21ft 0kts
30-Oct-18 16:52 32.732901 -117.187256 281 154ft 116kts
30-Oct-18 16:53 32.748938 -117.224009 299 2224ft 126kts
30-Oct-18 16:54 32.767194 -117.258170 300 4471ft 121kts
30-Oct-18 16:55 32.785491 -117.292510 302 6029ft 147kts
30-Oct-18 16:56 32.815255 -117.342655 307 6007ft 209kts
30-Oct-18 16:57 32.849294 -117.395488 308 7206ft 183kts
30-Oct-18 16:58 32.879904 -117.442971 308 8006ft 198kts
30-Oct-18 16:59 32.915302 -117.498010 308 7995ft 216kts
30-Oct-18 17:00 32.952161 -117.555404 308 7995ft 220kts
30-Oct-18 17:01 32.989972 -117.614363 308 8001ft 231kts
30-Oct-18 17:02 33.029377 -117.675930 307 7998ft 234kts
30-Oct-18 17:03 33.070583 -117.735995 317 7997ft 233kts
30-Oct-18 17:04 33.119722 -117.786407 318 8001ft 233kts
30-Oct-18 17:05 33.168958 -117.836530 319 8001ft 233kts
30-Oct-18 17:06 33.226248 -117.869794 345 8007ft 236kts
30-Oct-18 17:07 33.290532 -117.885922 345 8007ft 237kts
30-Oct-18 17:08 33.354740 -117.901950 345 7993ft 238kts
30-Oct-18 17:09 33.412159 -117.935978 320 7988ft 235kts
30-Oct-18 17:10 33.463645 -117.984541 320 7981ft 236kts
30-Oct-18 17:11 33.514824 -118.032996 319 7978ft 236kts
30-Oct-18 17:12 33.566346 -118.081859 319 7974ft 236kts
30-Oct-18 17:13 33.617703 -118.130659 319 7975ft 235kts
30-Oct-18 17:14 33.668785 -118.179267 319 7978ft 235kts
30-Oct-18 17:15 33.720051 -118.228105 319 7802ft 241kts
30-Oct-18 17:16 33.772548 -118.278217 319 6199ft 242kts
30-Oct-18 17:17 33.821718 -118.325225 322 6011ft 211kts
30-Oct-18 17:18 33.867336 -118.368863 321 6017ft 219kts
30-Oct-18 17:19 33.916535 -118.416034 320 5996ft 231kts
30-Oct-18 17:20 33.971356 -118.457536 328 5993ft 235kts
30-Oct-18 17:21 34.028916 -118.496140 327 5994ft 237kts
30-Oct-18 17:22 34.086765 -118.534831 327 5994ft 239kts
30-Oct-18 17:23 34.144828 -118.573812 327 5561ft 234kts
30-Oct-18 17:24 34.201306 -118.597315 35 3963ft 215kts
30-Oct-18 17:25 34.200600 -118.544874 97 3960ft 143kts
30-Oct-18 17:26 34.199671 -118.499718 96 4049ft 129kts
30-Oct-18 17:27 34.199150 -118.457885 96 3165ft 111kts
30-Oct-18 17:28 34.198651 -118.421288 95 1990ft 109kts
30-Oct-18 17:29 34.198224 -118.384785 95 1042ft 112kts
30-Oct-18 17:30 34.197760 -118.355693 77 705ft 28kts
30-Oct-18 17:31 34.198606 -118.355324 345 706ft 0kts
30-Oct-18 17:32 34.198720 -118.355361 344 706ft 0kts
30-Oct-18 17:33 34.199463 -118.360129 38 720ft 15kts
30-Oct-18 17:34 34.200350 -118.359528 349 722ft 0kts

Navigation Log

Ident Type
Flight plan parsing failed, navigation log unavailable